Pagrindinis puslapis
METAR-TAF:

METAR-TAF

Oro uostai :

Korientesas, Argentina

platuma: 27-27S, ilguma: 058-46W, Aukštis: 62 m

Dabartinis oras

Ataskaita buvo paskelbta 20 minutes, ne 21:00 UTC
Vėjas 7 kt iš Pietryčių
Temperatūra 19°C
Drėgmė 49%
Slėgis 1009 hPa
Matomumas: 9000 m

METAR: SARC 172100Z 14007KT 9000 NSC 19/08 Q1009

Laikas: 18:20 (21:20 UTC)


TAF: trūkstamas

Orai ataskaitas ir orų prognozės (METAR, TAF).

turimą stotys yra geltonos ir raudonos taškus žemėlapyje.

Perkelti pele per norėdami pamatyti stoties vardą.

Tada spustelėkite, norėdami matyti oro stebėjimo ir prognozės.

Norėdami pakeisti žemėlapį: spustelėkite ant žalios mygtukų su juodo kryžiaus žemyn,; žalią mygtuką su brūkšneliu, jei norite nutolinti; arba žalių rodyklių gretimoms žemėlapius.


METAR-TAF: